createdAt,value
2022-11-06T00:00:29.900Z,79.65
2022-11-06T00:03:00.332Z,79.21
2022-11-06T00:05:46.586Z,79.40
2022-11-06T00:08:13.704Z,79.31
2022-11-06T00:10:40.535Z,79.56
2022-11-06T00:13:07.176Z,79.54
2022-11-06T00:15:34.219Z,79.39
2022-11-06T00:18:00.600Z,79.24
2022-11-06T00:20:27.012Z,79.04
2022-11-06T00:22:53.363Z,79.72
2022-11-06T00:25:19.740Z,79.32
2022-11-06T00:27:46.267Z,79.26
2022-11-06T00:30:12.704Z,79.63
2022-11-06T00:32:39.624Z,80.39
2022-11-06T00:35:06.582Z,80.31
2022-11-06T00:37:35.074Z,79.97
2022-11-06T00:40:01.618Z,80.60
2022-11-06T00:42:28.090Z,81.04
2022-11-06T00:44:54.597Z,81.55
2022-11-06T00:47:21.012Z,81.56
2022-11-06T00:49:47.384Z,81.80
2022-11-06T00:52:13.819Z,81.71
2022-11-06T00:54:40.269Z,81.85
2022-11-06T00:57:06.963Z,81.28
2022-11-06T00:59:33.343Z,81.78
2022-11-06T01:01:59.879Z,81.57
2022-11-06T01:04:26.293Z,81.98
2022-11-06T01:06:56.602Z,81.57
2022-11-06T01:09:26.211Z,81.66
2022-11-06T01:12:13.333Z,81.71
2022-11-06T01:14:41.057Z,81.38
2022-11-06T01:17:07.449Z,81.42
2022-11-06T01:19:33.814Z,81.93
2022-11-06T01:22:00.239Z,81.87
2022-11-06T01:24:28.664Z,82.35
2022-11-06T01:27:25.051Z,81.95
2022-11-06T01:29:42.214Z,82.74
2022-11-06T01:32:08.616Z,82.75
2022-11-06T01:34:35.015Z,82.70
2022-11-06T01:37:01.740Z,82.57
2022-11-06T01:39:28.192Z,82.29
2022-11-06T01:41:54.993Z,82.14
2022-11-06T01:44:33.482Z,82.82
2022-11-06T01:47:02.117Z,82.63
2022-11-06T01:49:32.618Z,82.46
2022-11-06T01:52:02.930Z,83.08
2022-11-06T01:54:31.099Z,83.42
2022-11-06T01:57:00.169Z,83.33
2022-11-06T01:59:30.173Z,83.74
2022-11-06T02:01:56.670Z,83.61
2022-11-06T02:04:26.122Z,83.82
2022-11-06T02:06:53.265Z,83.79
2022-11-06T02:09:20.524Z,84.00
2022-11-06T02:11:57.092Z,84.14
2022-11-06T02:14:42.660Z,84.63
2022-11-06T02:17:38.174Z,85.02
2022-11-06T02:20:35.585Z,84.52
2022-11-06T02:23:20.023Z,84.97
2022-11-06T02:25:54.118Z,84.84
2022-11-06T02:28:25.310Z,84.71
2022-11-06T02:30:55.293Z,85.08
2022-11-06T02:33:40.356Z,84.72
2022-11-06T02:36:11.229Z,84.65
2022-11-06T02:38:45.525Z,84.81
2022-11-06T02:41:25.464Z,84.77
2022-11-06T02:43:56.619Z,85.07
2022-11-06T02:46:35.649Z,84.94
2022-11-06T02:49:12.573Z,84.75
2022-11-06T02:51:45.683Z,85.08
2022-11-06T02:54:13.360Z,84.92
2022-11-06T02:56:45.019Z,85.54
2022-11-06T02:59:31.847Z,85.05
2022-11-06T03:02:01.911Z,85.15
2022-11-06T03:04:45.895Z,84.95
2022-11-06T03:07:22.610Z,85.25
2022-11-06T03:09:50.082Z,84.81
2022-11-06T03:12:19.313Z,85.40
2022-11-06T03:15:11.611Z,85.17
2022-11-06T03:17:50.535Z,84.74
2022-11-06T03:20:16.869Z,85.48
2022-11-06T03:22:55.830Z,84.82
2022-11-06T03:25:29.148Z,85.45
2022-11-06T03:28:08.339Z,85.13
2022-11-06T03:30:39.443Z,85.50
2022-11-06T03:33:15.938Z,85.35
2022-11-06T03:36:03.082Z,86.16
2022-11-06T03:38:42.507Z,85.55
2022-11-06T03:41:14.677Z,85.74
2022-11-06T03:43:45.370Z,85.21
2022-11-06T03:46:19.223Z,85.25
2022-11-06T03:49:22.362Z,84.95
2022-11-06T03:52:06.887Z,85.40
2022-11-06T03:54:39.783Z,85.33
2022-11-06T03:57:43.736Z,85.07
2022-11-06T04:00:11.447Z,85.93
2022-11-06T04:02:46.404Z,85.63
2022-11-06T04:05:21.793Z,85.97
2022-11-06T04:08:12.222Z,85.40
2022-11-06T04:11:02.389Z,85.81
2022-11-06T04:13:51.975Z,85.51
2022-11-06T04:16:18.633Z,85.92
2022-11-06T04:18:44.988Z,85.83
2022-11-06T04:21:28.636Z,85.71
2022-11-06T04:24:44.845Z,85.23
2022-11-06T04:27:48.399Z,85.32
2022-11-06T04:30:17.726Z,85.29
2022-11-06T04:33:02.821Z,85.08
2022-11-06T04:35:47.696Z,85.93
2022-11-06T04:38:51.781Z,85.54
2022-11-06T04:41:34.662Z,85.35
2022-11-06T04:44:09.956Z,85.69
2022-11-06T04:46:49.442Z,86.15
2022-11-06T04:49:17.212Z,85.66
2022-11-06T04:51:45.884Z,85.70
2022-11-06T04:54:13.883Z,85.25
2022-11-06T04:56:45.776Z,84.96
2022-11-06T04:59:15.887Z,84.99
2022-11-06T05:01:42.437Z,85.24
2022-11-06T05:04:09.395Z,85.21
2022-11-06T05:06:35.787Z,85.28
2022-11-06T05:09:02.321Z,85.17
2022-11-06T05:11:28.722Z,85.04
2022-11-06T05:13:55.343Z,85.18
2022-11-06T05:16:21.681Z,84.58
2022-11-06T05:18:48.032Z,84.92
2022-11-06T05:21:33.287Z,84.78
2022-11-06T05:23:59.820Z,84.96
2022-11-06T05:26:26.489Z,84.99
2022-11-06T05:28:52.844Z,84.42
2022-11-06T05:31:19.224Z,85.00
2022-11-06T05:33:45.583Z,84.75
2022-11-06T05:36:11.949Z,84.80
2022-11-06T05:38:38.352Z,84.88
2022-11-06T05:41:04.878Z,84.99
2022-11-06T05:43:31.238Z,85.24
2022-11-06T05:45:58.173Z,85.15
2022-11-06T05:48:24.535Z,85.06
2022-11-06T05:50:50.907Z,84.80
2022-11-06T05:53:17.298Z,85.47
2022-11-06T05:55:47.019Z,85.24
2022-11-06T05:58:14.602Z,85.53
2022-11-06T06:00:41.279Z,85.44
2022-11-06T06:03:07.763Z,85.38
2022-11-06T06:05:34.148Z,85.09
2022-11-06T06:08:00.523Z,85.74
2022-11-06T06:10:26.909Z,85.60
2022-11-06T06:12:53.311Z,85.86
2022-11-06T06:15:19.671Z,85.29
2022-11-06T06:17:46.483Z,85.38
2022-11-06T06:20:13.350Z,85.30
2022-11-06T06:22:39.812Z,85.92
2022-11-06T06:25:14.639Z,85.37
2022-11-06T06:27:47.661Z,85.38
2022-11-06T06:30:14.031Z,85.80
2022-11-06T06:32:40.399Z,85.44
2022-11-06T06:35:07.054Z,85.25
2022-11-06T06:37:33.432Z,85.66
2022-11-06T06:39:59.808Z,85.72
2022-11-06T06:42:31.258Z,85.60
2022-11-06T06:44:57.977Z,85.23
2022-11-06T06:47:24.376Z,85.38
2022-11-06T06:49:50.739Z,85.37
2022-11-06T06:52:17.107Z,85.44
2022-11-06T06:54:43.489Z,85.65
2022-11-06T06:57:10.024Z,84.85
2022-11-06T06:59:36.412Z,84.85
2022-11-06T07:02:03.310Z,84.59
2022-11-06T07:04:29.760Z,84.79
2022-11-06T07:06:56.224Z,84.80
2022-11-06T07:09:26.289Z,85.01
2022-11-06T07:11:52.745Z,84.68
2022-11-06T07:14:19.454Z,84.87
2022-11-06T07:16:49.760Z,84.72
2022-11-06T07:19:19.936Z,84.85
2022-11-06T07:21:46.307Z,84.97
2022-11-06T07:24:12.720Z,84.41
2022-11-06T07:26:39.076Z,85.01
2022-11-06T07:29:05.454Z,84.82
2022-11-06T07:31:31.837Z,85.31
2022-11-06T07:33:58.216Z,84.98
2022-11-06T07:36:24.655Z,85.54
2022-11-06T07:38:50.988Z,85.48
2022-11-06T07:41:17.347Z,85.30
2022-11-06T07:43:44.087Z,85.08
2022-11-06T07:46:13.128Z,84.56
2022-11-06T07:48:39.754Z,85.26
2022-11-06T07:51:08.324Z,84.99
2022-11-06T07:53:35.065Z,84.88
2022-11-06T07:56:01.976Z,84.31
2022-11-06T07:58:29.021Z,84.56
2022-11-06T08:00:57.486Z,84.40
2022-11-06T08:03:25.250Z,83.98
2022-11-06T08:05:51.985Z,83.97
2022-11-06T08:08:18.463Z,83.53
2022-11-06T08:10:44.907Z,83.32
2022-11-06T08:13:13.312Z,83.08
2022-11-06T08:15:41.265Z,83.39
2022-11-06T08:18:08.763Z,83.47
2022-11-06T08:20:36.802Z,83.41
2022-11-06T08:23:05.376Z,83.45
2022-11-06T08:25:32.537Z,82.85
2022-11-06T08:28:00.464Z,83.15
2022-11-06T08:30:28.576Z,83.07
2022-11-06T08:32:55.927Z,83.13
2022-11-06T08:35:22.285Z,83.10
2022-11-06T08:37:48.632Z,82.90
2022-11-06T08:40:14.994Z,82.83
2022-11-06T08:42:41.365Z,83.20
2022-11-06T08:45:08.452Z,82.85
2022-11-06T08:47:34.844Z,83.12
2022-11-06T08:50:01.500Z,83.05
2022-11-06T08:52:33.694Z,83.16
2022-11-06T08:55:00.428Z,83.46
2022-11-06T08:57:28.103Z,83.45
2022-11-06T08:59:54.481Z,83.02
2022-11-06T09:02:20.903Z,83.18
2022-11-06T09:04:47.302Z,82.99
2022-11-06T09:07:13.659Z,83.01
2022-11-06T09:09:40.005Z,83.74
2022-11-06T09:12:06.707Z,83.92
2022-11-06T09:14:33.961Z,83.80
2022-11-06T09:17:00.427Z,83.94
2022-11-06T09:19:26.788Z,84.35
2022-11-06T09:21:54.828Z,84.05
2022-11-06T09:24:43.272Z,83.41
2022-11-06T09:27:08.160Z,83.65
2022-11-06T09:29:34.564Z,83.16
2022-11-06T09:32:00.941Z,83.18
2022-11-06T09:34:27.281Z,83.37
2022-11-06T09:36:53.641Z,83.57
2022-11-06T09:39:23.557Z,82.98
2022-11-06T09:42:00.912Z,83.37
2022-11-06T09:44:42.419Z,83.42
2022-11-06T09:47:32.291Z,83.07
2022-11-06T09:49:59.056Z,83.56
2022-11-06T09:52:48.832Z,83.14
2022-11-06T09:55:20.466Z,83.19
2022-11-06T09:57:52.043Z,83.09
2022-11-06T10:00:18.821Z,83.13
2022-11-06T10:02:48.348Z,83.16
2022-11-06T10:05:47.607Z,83.40
2022-11-06T10:08:22.850Z,83.68
2022-11-06T10:11:21.539Z,83.60
2022-11-06T10:14:31.334Z,83.39
2022-11-06T10:17:25.519Z,83.10
2022-11-06T10:20:08.971Z,83.18
2022-11-06T10:22:51.804Z,83.53
2022-11-06T10:25:21.951Z,83.37
2022-11-06T10:28:16.003Z,83.12
2022-11-06T10:30:53.425Z,82.94
2022-11-06T10:33:41.382Z,83.02
2022-11-06T10:36:51.668Z,83.17
2022-11-06T10:39:29.508Z,82.92
2022-11-06T10:42:05.638Z,82.86
2022-11-06T10:44:57.691Z,82.51
2022-11-06T10:47:29.831Z,82.97
2022-11-06T10:49:59.668Z,83.18
2022-11-06T10:52:50.699Z,83.45
2022-11-06T10:55:41.064Z,83.19
2022-11-06T10:58:12.637Z,83.29
2022-11-06T11:00:39.899Z,83.01
2022-11-06T11:03:15.903Z,83.01
2022-11-06T11:05:44.400Z,83.39
2022-11-06T11:08:35.332Z,82.72
2022-11-06T11:11:25.677Z,82.63
2022-11-06T11:14:13.524Z,82.38
2022-11-06T11:16:44.785Z,82.11
2022-11-06T11:19:38.712Z,81.95
2022-11-06T11:22:18.629Z,82.03
2022-11-06T11:25:03.024Z,82.06
2022-11-06T11:27:34.879Z,82.24
2022-11-06T11:30:04.390Z,81.82
2022-11-06T11:32:31.703Z,81.45
2022-11-06T11:34:58.788Z,81.48
2022-11-06T11:37:29.864Z,81.27
2022-11-06T11:40:21.926Z,81.45
2022-11-06T11:42:48.472Z,81.44
2022-11-06T11:45:20.691Z,80.93
2022-11-06T11:47:50.012Z,80.89
2022-11-06T11:50:16.318Z,80.56
2022-11-06T11:52:48.704Z,80.70
2022-11-06T11:55:21.040Z,80.70
2022-11-06T11:57:52.872Z,81.21
2022-11-06T12:00:22.477Z,81.43
2022-11-06T12:02:55.120Z,81.40
2022-11-06T12:05:24.764Z,81.42
2022-11-06T12:07:56.244Z,81.21
2022-11-06T12:10:43.119Z,81.97
2022-11-06T12:13:23.995Z,82.30
2022-11-06T12:16:03.483Z,82.10
2022-11-06T12:18:37.010Z,82.42
2022-11-06T12:21:24.295Z,82.41
2022-11-06T12:24:15.691Z,82.19
2022-11-06T12:26:46.552Z,82.68
2022-11-06T12:29:20.180Z,83.13
2022-11-06T12:31:59.321Z,82.95
2022-11-06T12:34:40.715Z,82.65
2022-11-06T12:37:18.659Z,83.25
2022-11-06T12:39:54.143Z,83.39
2022-11-06T12:42:27.782Z,83.53
2022-11-06T12:44:54.155Z,83.84
2022-11-06T12:47:41.301Z,83.93
2022-11-06T12:50:35.859Z,83.81
2022-11-06T12:53:31.091Z,84.24
2022-11-06T12:56:24.855Z,84.15
2022-11-06T12:59:31.508Z,84.10
2022-11-06T13:02:23.382Z,83.36
2022-11-06T13:05:15.183Z,83.47
2022-11-06T13:08:20.205Z,83.78
2022-11-06T13:11:18.285Z,83.27
2022-11-06T13:14:10.844Z,83.47
2022-11-06T13:16:50.995Z,83.16
2022-11-06T13:19:29.935Z,83.58
2022-11-06T13:22:17.931Z,83.54
2022-11-06T13:24:53.162Z,83.58
2022-11-06T13:27:41.747Z,83.62
2022-11-06T13:30:16.873Z,83.48
2022-11-06T13:32:53.537Z,83.58
2022-11-06T13:35:22.362Z,83.39
2022-11-06T13:37:50.292Z,83.34
2022-11-06T13:40:28.980Z,83.01
2022-11-06T13:43:02.426Z,83.67
2022-11-06T13:45:36.149Z,83.89
2022-11-06T13:48:27.247Z,83.98
2022-11-06T13:51:02.883Z,83.81
2022-11-06T13:53:52.822Z,83.75
2022-11-06T13:56:37.789Z,84.03
2022-11-06T13:59:16.198Z,84.04
2022-11-06T14:01:45.582Z,84.17
2022-11-06T14:04:35.616Z,84.64
2022-11-06T14:07:05.096Z,84.19
2022-11-06T14:09:34.788Z,84.07
2022-11-06T14:12:05.155Z,84.06
2022-11-06T14:14:33.841Z,84.60
2022-11-06T14:17:16.539Z,84.71
2022-11-06T14:20:25.939Z,84.29
2022-11-06T14:22:52.309Z,84.41
2022-11-06T14:25:27.400Z,85.60
2022-11-06T14:27:53.725Z,85.03
2022-11-06T14:30:50.325Z,84.09
2022-11-06T14:33:40.311Z,84.13
2022-11-06T14:36:25.023Z,83.61
2022-11-06T14:38:53.248Z,85.35
2022-11-06T14:41:34.912Z,84.36
2022-11-06T14:44:14.496Z,84.62
2022-11-06T14:46:50.212Z,84.66
2022-11-06T14:49:43.650Z,84.76
2022-11-06T14:52:13.643Z,84.60
2022-11-06T14:55:10.729Z,84.91
2022-11-06T14:57:48.884Z,84.71
2022-11-06T15:00:44.260Z,84.77
2022-11-06T15:03:19.842Z,85.32
2022-11-06T15:05:51.911Z,85.08
2022-11-06T15:08:54.797Z,85.51
2022-11-06T15:11:30.192Z,84.41
2022-11-06T15:14:16.442Z,84.60
2022-11-06T15:16:44.067Z,85.04
2022-11-06T15:19:21.904Z,84.86
2022-11-06T15:21:58.440Z,84.68
2022-11-06T15:24:33.239Z,84.70
2022-11-06T15:27:10.244Z,84.89
2022-11-06T15:29:42.016Z,85.41
2022-11-06T15:32:28.078Z,85.02
2022-11-06T15:35:06.277Z,84.97
2022-11-06T15:37:45.744Z,84.89
2022-11-06T15:40:30.792Z,84.72
2022-11-06T15:43:00.881Z,84.95
2022-11-06T15:45:29.191Z,84.25
2022-11-06T15:48:06.470Z,84.77
2022-11-06T15:50:34.621Z,84.35
2022-11-06T15:53:30.408Z,84.28
2022-11-06T15:56:02.157Z,84.56
2022-11-06T15:58:33.747Z,84.60
2022-11-06T16:01:02.392Z,84.38
2022-11-06T16:03:32.065Z,83.97
2022-11-06T16:06:02.389Z,84.58
2022-11-06T16:08:31.118Z,84.33
2022-11-06T16:10:58.566Z,83.86
2022-11-06T16:13:25.955Z,83.69
2022-11-06T16:15:59.162Z,84.20
2022-11-06T16:18:45.301Z,83.96
2022-11-06T16:21:21.470Z,83.45
2022-11-06T16:23:54.071Z,83.30
2022-11-06T16:26:28.153Z,83.13
2022-11-06T16:28:56.233Z,83.10
2022-11-06T16:31:25.283Z,83.05
2022-11-06T16:34:00.648Z,82.76
2022-11-06T16:36:30.124Z,82.48
2022-11-06T16:39:48.212Z,82.67
2022-11-06T16:42:29.214Z,82.82
2022-11-06T16:45:18.107Z,82.98
2022-11-06T16:48:07.254Z,82.71
2022-11-06T16:50:48.836Z,82.24
2022-11-06T16:53:20.524Z,82.83
2022-11-06T16:56:06.897Z,82.36
2022-11-06T16:58:41.984Z,82.70
2022-11-06T17:01:08.684Z,82.61
2022-11-06T17:03:40.779Z,82.61
2022-11-06T17:06:17.805Z,82.74
2022-11-06T17:08:57.776Z,82.66
2022-11-06T17:11:24.155Z,82.95
2022-11-06T17:13:51.284Z,82.59
2022-11-06T17:16:23.633Z,82.96
2022-11-06T17:18:50.544Z,82.66
2022-11-06T17:21:24.787Z,82.20
2022-11-06T17:23:52.685Z,82.83
2022-11-06T17:26:28.239Z,83.52
2022-11-06T17:28:56.232Z,83.24
2022-11-06T17:31:23.863Z,83.05
2022-11-06T17:33:51.053Z,82.63
2022-11-06T17:36:20.869Z,83.02
2022-11-06T17:38:48.004Z,83.37
2022-11-06T17:41:29.602Z,83.12
2022-11-06T17:44:07.864Z,83.15
2022-11-06T17:46:37.844Z,83.43
2022-11-06T17:49:04.458Z,83.01
2022-11-06T17:51:49.807Z,83.47
2022-11-06T17:54:17.893Z,83.95
2022-11-06T17:56:44.790Z,84.07
2022-11-06T17:59:13.300Z,83.87
2022-11-06T18:01:40.947Z,83.85
2022-11-06T18:04:07.647Z,84.12
2022-11-06T18:06:34.279Z,84.08
2022-11-06T18:09:05.443Z,84.57
2022-11-06T18:11:31.986Z,84.51
2022-11-06T18:13:58.486Z,83.85
2022-11-06T18:16:27.872Z,84.07
2022-11-06T18:18:55.342Z,84.46
2022-11-06T18:21:21.832Z,84.36
2022-11-06T18:23:48.493Z,84.52
2022-11-06T18:26:15.328Z,84.09
2022-11-06T18:28:41.885Z,83.80
2022-11-06T18:31:08.447Z,84.05
2022-11-06T18:33:35.035Z,84.40
2022-11-06T18:36:03.008Z,84.03
2022-11-06T18:38:29.501Z,84.23
2022-11-06T18:40:56.148Z,85.12
2022-11-06T18:43:22.834Z,84.78
2022-11-06T18:45:49.407Z,84.56
2022-11-06T18:48:21.096Z,84.35
2022-11-06T18:50:48.247Z,84.30
2022-11-06T18:53:15.190Z,84.16
2022-11-06T18:55:45.798Z,84.06
2022-11-06T18:58:12.595Z,84.34
2022-11-06T19:00:39.308Z,84.13
2022-11-06T19:03:06.431Z,84.07
2022-11-06T19:05:34.154Z,84.69
2022-11-06T19:08:01.242Z,84.67
2022-11-06T19:10:29.379Z,84.65
2022-11-06T19:12:59.162Z,84.50
2022-11-06T19:15:25.919Z,84.53
2022-11-06T19:17:54.448Z,84.44
2022-11-06T19:20:23.572Z,84.55
2022-11-06T19:22:51.952Z,84.82
2022-11-06T19:25:19.197Z,84.70
2022-11-06T19:27:46.290Z,84.81
2022-11-06T19:30:14.634Z,85.21
2022-11-06T19:32:41.717Z,84.70
2022-11-06T19:35:08.584Z,85.29
2022-11-06T19:37:36.046Z,84.87
2022-11-06T19:40:06.055Z,85.29
2022-11-06T19:42:32.908Z,85.19
2022-11-06T19:44:59.317Z,85.47
2022-11-06T19:47:27.570Z,85.63
2022-11-06T19:49:54.078Z,85.40
2022-11-06T19:52:42.973Z,85.51
2022-11-06T19:55:26.056Z,85.77
2022-11-06T19:57:53.420Z,85.52
2022-11-06T20:00:19.867Z,85.82
2022-11-06T20:02:49.595Z,86.18
2022-11-06T20:05:16.055Z,85.99
2022-11-06T20:07:42.559Z,85.91
2022-11-06T20:10:09.088Z,85.67
2022-11-06T20:12:35.506Z,85.73
2022-11-06T20:15:01.943Z,85.54
2022-11-06T20:17:28.319Z,85.20
2022-11-06T20:19:54.689Z,85.49
2022-11-06T20:22:21.073Z,85.46
2022-11-06T20:24:47.455Z,85.97
2022-11-06T20:27:13.872Z,85.93
2022-11-06T20:29:40.310Z,85.88
2022-11-06T20:32:06.656Z,86.25
2022-11-06T20:34:33.077Z,86.69
2022-11-06T20:36:59.421Z,86.43
2022-11-06T20:39:25.827Z,86.71
2022-11-06T20:41:52.747Z,87.01
2022-11-06T20:44:19.151Z,86.90
2022-11-06T20:46:47.752Z,86.15
2022-11-06T20:49:14.638Z,86.24
2022-11-06T20:52:07.295Z,86.39
2022-11-06T20:54:27.702Z,86.46
2022-11-06T20:56:54.080Z,86.05
2022-11-06T20:59:20.620Z,86.52
2022-11-06T21:01:47.498Z,86.13
2022-11-06T21:04:14.066Z,86.03
2022-11-06T21:06:40.615Z,86.11
2022-11-06T21:09:08.093Z,86.06
2022-11-06T21:11:35.129Z,85.78
2022-11-06T21:14:01.679Z,85.27
2022-11-06T21:16:36.521Z,85.47
2022-11-06T21:19:04.721Z,85.92
2022-11-06T21:21:33.896Z,85.38
2022-11-06T21:24:01.960Z,85.85
2022-11-06T21:26:31.569Z,86.50
2022-11-06T21:28:58.327Z,86.48
2022-11-06T21:31:27.649Z,86.61
2022-11-06T21:33:55.976Z,86.49
2022-11-06T21:36:31.855Z,86.22
2022-11-06T21:39:01.307Z,86.35
2022-11-06T21:41:30.209Z,85.71
2022-11-06T21:43:57.296Z,86.17
2022-11-06T21:46:24.288Z,87.02
2022-11-06T21:48:51.609Z,86.92
2022-11-06T21:51:26.541Z,86.28
2022-11-06T21:54:13.021Z,85.94
2022-11-06T21:56:40.892Z,86.08
2022-11-06T21:59:10.220Z,86.21
2022-11-06T22:01:38.037Z,86.13
2022-11-06T22:04:04.981Z,86.52
2022-11-06T22:06:31.453Z,85.50
2022-11-06T22:09:00.896Z,85.25
2022-11-06T22:11:30.870Z,85.28
2022-11-06T22:13:59.909Z,85.80
2022-11-06T22:16:31.473Z,86.01
2022-11-06T22:18:58.575Z,86.14
2022-11-06T22:21:27.072Z,86.05
2022-11-06T22:23:54.241Z,86.24
2022-11-06T22:26:26.339Z,85.53
2022-11-06T22:28:58.415Z,86.00
2022-11-06T22:31:25.815Z,86.16
2022-11-06T22:33:53.880Z,86.16
2022-11-06T22:36:21.788Z,86.00
2022-11-06T22:38:49.022Z,86.28
2022-11-06T22:41:18.698Z,85.98
2022-11-06T22:43:45.362Z,86.62
2022-11-06T22:46:14.696Z,86.43
2022-11-06T22:48:41.560Z,86.71
2022-11-06T22:51:11.639Z,86.31
2022-11-06T22:53:38.429Z,86.16
2022-11-06T22:56:05.605Z,86.76
2022-11-06T22:58:32.608Z,87.01
2022-11-06T23:00:59.748Z,86.82
2022-11-06T23:03:28.477Z,86.51
2022-11-06T23:05:57.982Z,86.59
2022-11-06T23:08:26.083Z,87.20
2022-11-06T23:10:53.264Z,87.66
2022-11-06T23:13:19.622Z,87.06
2022-11-06T23:15:46.068Z,86.81
2022-11-06T23:18:12.551Z,87.15
2022-11-06T23:20:39.236Z,87.21
2022-11-06T23:23:05.771Z,87.03
2022-11-06T23:25:32.879Z,87.75
2022-11-06T23:28:00.763Z,87.41
2022-11-06T23:30:29.968Z,87.16
2022-11-06T23:32:57.101Z,86.93
2022-11-06T23:35:26.923Z,87.23
2022-11-06T23:38:00.019Z,86.99
2022-11-06T23:40:26.415Z,86.92
2022-11-06T23:42:54.826Z,86.44
2022-11-06T23:45:39.896Z,86.26
2022-11-06T23:48:13.151Z,86.77
2022-11-06T23:50:39.756Z,86.33
2022-11-06T23:53:06.124Z,86.52
2022-11-06T23:55:32.711Z,86.98
2022-11-06T23:57:59.544Z,86.65
